createdAt,value
2022-09-14T00:02:23.833Z,3.47
2022-09-14T00:04:54.468Z,3.28
2022-09-14T00:07:26.896Z,3.90
2022-09-14T00:10:00.684Z,3.60
2022-09-14T00:12:31.192Z,3.65
2022-09-14T00:15:07.840Z,3.28
2022-09-14T00:17:37.906Z,4.10
2022-09-14T00:20:09.532Z,3.80
2022-09-14T00:22:39.616Z,4.05
2022-09-14T00:25:11.416Z,4.82
2022-09-14T00:27:41.487Z,3.40
2022-09-14T00:30:15.256Z,4.20
2022-09-14T00:32:45.332Z,4.32
2022-09-14T00:35:15.595Z,4.50
2022-09-14T00:37:45.809Z,3.83
2022-09-14T00:40:15.902Z,4.85
2022-09-14T00:42:46.081Z,5.35
2022-09-14T00:45:29.827Z,5.50
2022-09-14T00:48:02.944Z,5.28
2022-09-14T00:50:33.467Z,5.30
2022-09-14T00:53:07.294Z,5.45
2022-09-14T00:55:40.298Z,5.35
2022-09-14T00:58:11.135Z,5.88
2022-09-14T01:00:46.450Z,5.70
2022-09-14T01:03:16.648Z,6.65
2022-09-14T01:06:06.716Z,5.60
2022-09-14T01:08:59.360Z,6.53
2022-09-14T01:12:00.266Z,6.75
2022-09-14T01:14:44.912Z,6.90
2022-09-14T01:17:40.948Z,6.60
2022-09-14T01:20:37.861Z,6.88
2022-09-14T01:23:20.286Z,6.47
2022-09-14T01:26:37.913Z,5.70
2022-09-14T01:29:19.300Z,5.40
2022-09-14T01:31:59.122Z,5.13
2022-09-14T01:34:36.872Z,5.63
2022-09-14T01:37:16.212Z,5.70
2022-09-14T01:39:53.115Z,5.07
2022-09-14T01:42:29.331Z,5.57
2022-09-14T01:45:12.124Z,4.60
2022-09-14T01:47:49.650Z,4.78
2022-09-14T01:50:41.561Z,4.85
2022-09-14T01:53:18.828Z,4.00
2022-09-14T01:55:58.360Z,4.32
2022-09-14T01:58:37.485Z,4.47
2022-09-14T02:01:18.367Z,3.63
2022-09-14T02:03:55.615Z,4.72
2022-09-14T02:06:35.534Z,4.18
2022-09-14T02:09:10.416Z,4.40
2022-09-14T02:11:41.373Z,5.38
2022-09-14T02:14:11.945Z,4.80
2022-09-14T02:16:47.773Z,5.55
2022-09-14T02:19:23.068Z,5.30
2022-09-14T02:21:54.247Z,5.68
2022-09-14T02:24:27.391Z,6.30
2022-09-14T02:27:03.763Z,6.88
2022-09-14T02:29:38.107Z,7.30
2022-09-14T02:32:28.085Z,7.10
2022-09-14T02:35:13.024Z,7.78
2022-09-14T02:37:54.979Z,8.68
2022-09-14T02:40:38.375Z,7.57
2022-09-14T02:43:29.675Z,6.97
2022-09-14T02:46:12.676Z,7.07
2022-09-14T02:48:58.117Z,7.57
2022-09-14T02:51:38.144Z,8.35
2022-09-14T02:54:17.393Z,8.43
2022-09-14T02:56:48.404Z,8.82
2022-09-14T02:59:19.452Z,8.98
2022-09-14T03:01:51.995Z,9.32
2022-09-14T03:04:34.564Z,8.68
2022-09-14T03:07:08.971Z,10.70
2022-09-14T03:09:41.443Z,10.80
2022-09-14T03:12:17.127Z,12.13
2022-09-14T03:14:47.205Z,12.02
2022-09-14T03:17:17.338Z,11.82
2022-09-14T03:19:52.216Z,11.23
2022-09-14T03:22:24.789Z,12.75
2022-09-14T03:24:54.845Z,13.20
2022-09-14T03:27:24.911Z,13.10
2022-09-14T03:29:54.980Z,14.95
2022-09-14T03:32:25.117Z,13.65
2022-09-14T03:34:57.774Z,14.52
2022-09-14T03:37:28.743Z,15.40
2022-09-14T03:39:58.871Z,13.95
2022-09-14T03:42:31.985Z,12.98
2022-09-14T03:45:02.258Z,12.95
2022-09-14T03:47:32.591Z,12.93
2022-09-14T03:50:09.490Z,12.38
2022-09-14T03:52:40.287Z,12.50
2022-09-14T03:55:13.523Z,11.73
2022-09-14T03:57:43.578Z,11.82
2022-09-14T04:00:18.057Z,12.20
2022-09-14T04:02:48.323Z,11.27
2022-09-14T04:05:23.556Z,11.20
2022-09-14T04:07:53.692Z,9.15
2022-09-14T04:10:23.815Z,10.48
2022-09-14T04:12:54.017Z,10.55
2022-09-14T04:15:24.176Z,11.00
2022-09-14T04:17:57.005Z,10.80
2022-09-14T04:20:42.363Z,11.20
2022-09-14T04:23:12.501Z,10.98
2022-09-14T04:25:45.616Z,10.77
2022-09-14T04:28:20.422Z,10.85
2022-09-14T04:30:59.665Z,10.20
2022-09-14T04:33:33.867Z,11.25
2022-09-14T04:36:10.396Z,9.68
2022-09-14T04:38:42.359Z,9.90
2022-09-14T04:41:16.373Z,9.63
2022-09-14T04:43:50.569Z,10.13
2022-09-14T04:46:24.059Z,9.25
2022-09-14T04:49:00.829Z,10.68
2022-09-14T04:51:43.435Z,9.45
2022-09-14T04:54:18.779Z,10.38
2022-09-14T04:56:48.983Z,9.52
2022-09-14T04:59:19.137Z,9.38
2022-09-14T05:01:50.854Z,9.55
2022-09-14T05:04:21.239Z,10.05
2022-09-14T05:06:53.929Z,9.85
2022-09-14T05:09:26.898Z,9.38
2022-09-14T05:11:57.039Z,9.80
2022-09-14T05:14:27.444Z,9.25
2022-09-14T05:17:01.258Z,10.35
2022-09-14T05:19:31.329Z,10.48
2022-09-14T05:22:08.750Z,10.55
2022-09-14T05:24:38.892Z,10.93
2022-09-14T05:27:09.035Z,10.15
2022-09-14T05:29:42.353Z,11.32
2022-09-14T05:32:18.053Z,10.75
2022-09-14T05:34:48.191Z,10.25
2022-09-14T05:37:24.013Z,11.35
2022-09-14T05:39:54.332Z,11.00
2022-09-14T05:42:24.416Z,10.38
2022-09-14T05:44:57.535Z,10.85
2022-09-14T05:47:38.991Z,10.82
2022-09-14T05:50:11.202Z,10.73
2022-09-14T05:52:43.917Z,10.23
2022-09-14T05:55:17.097Z,11.73
2022-09-14T05:57:51.911Z,12.88
2022-09-14T06:00:25.181Z,11.95
2022-09-14T06:02:57.460Z,13.73
2022-09-14T06:05:28.297Z,12.55
2022-09-14T06:08:01.148Z,12.45
2022-09-14T06:10:31.298Z,12.18
2022-09-14T06:13:03.062Z,11.70
2022-09-14T06:15:39.731Z,11.85
2022-09-14T06:18:09.811Z,11.35
2022-09-14T06:20:43.147Z,11.70
2022-09-14T06:23:15.825Z,11.88
2022-09-14T06:25:45.891Z,11.40
2022-09-14T06:28:15.952Z,9.57
2022-09-14T06:30:46.943Z,8.63
2022-09-14T06:33:17.050Z,9.70
2022-09-14T06:35:56.627Z,9.73
2022-09-14T06:38:35.756Z,9.90
2022-09-14T06:41:12.303Z,11.77
2022-09-14T06:43:44.932Z,11.20
2022-09-14T06:46:19.225Z,11.40
2022-09-14T06:48:52.775Z,11.23
2022-09-14T06:51:26.089Z,12.40
2022-09-14T06:54:01.104Z,10.63
2022-09-14T06:56:33.712Z,10.63
2022-09-14T06:59:04.612Z,9.70
2022-09-14T07:01:35.219Z,9.05
2022-09-14T07:04:06.618Z,8.93
2022-09-14T07:06:43.938Z,7.80
2022-09-14T07:09:17.642Z,7.32
2022-09-14T07:11:49.239Z,6.93
2022-09-14T07:14:20.180Z,7.05
2022-09-14T07:16:53.393Z,5.72
2022-09-14T07:19:23.429Z,5.22
2022-09-14T07:21:54.751Z,3.95
2022-09-14T07:24:27.486Z,4.55
2022-09-14T07:26:57.763Z,4.68
2022-09-14T07:29:30.357Z,4.50
2022-09-14T07:32:00.466Z,4.63
2022-09-14T07:34:33.140Z,5.72
2022-09-14T07:37:03.230Z,5.40
2022-09-14T07:39:35.912Z,4.68
2022-09-14T07:42:09.476Z,4.88
2022-09-14T07:44:39.500Z,5.28
2022-09-14T07:47:09.824Z,4.20
2022-09-14T07:49:42.732Z,4.93
2022-09-14T07:52:12.979Z,4.07
2022-09-14T07:54:47.816Z,4.70
2022-09-14T07:57:30.219Z,3.78
2022-09-14T08:00:22.000Z,3.70
2022-09-14T08:02:56.183Z,4.07
2022-09-14T08:05:26.957Z,3.20
2022-09-14T08:07:59.897Z,3.67
2022-09-14T08:10:35.064Z,7.70
2022-09-14T08:13:05.155Z,10.07
2022-09-14T08:15:35.222Z,10.07
2022-09-14T08:18:05.369Z,11.43
2022-09-14T08:20:36.543Z,10.35
2022-09-14T08:23:06.716Z,11.23
2022-09-14T08:25:39.408Z,11.48
2022-09-14T08:28:09.451Z,13.45
2022-09-14T08:30:42.548Z,16.42
2022-09-14T08:33:15.392Z,16.55
2022-09-14T08:36:01.888Z,18.92
2022-09-14T08:38:32.341Z,17.67
2022-09-14T08:41:30.965Z,17.30
2022-09-14T08:44:08.031Z,14.63
2022-09-14T08:46:47.359Z,13.98
2022-09-14T08:49:27.989Z,14.73
2022-09-14T08:51:59.781Z,15.82
2022-09-14T08:54:34.558Z,16.38
2022-09-14T08:57:19.025Z,19.20
2022-09-14T09:00:09.012Z,19.45
2022-09-14T09:03:16.674Z,19.60
2022-09-14T09:05:56.316Z,20.63
2022-09-14T09:08:41.065Z,20.45
2022-09-14T09:11:17.625Z,20.25
2022-09-14T09:13:55.099Z,20.80
2022-09-14T09:16:34.074Z,19.58
2022-09-14T09:19:15.608Z,19.98
2022-09-14T09:21:53.186Z,18.58
2022-09-14T09:24:36.894Z,18.20
2022-09-14T09:27:16.049Z,18.10
2022-09-14T09:29:51.096Z,20.30
2022-09-14T09:32:26.118Z,18.80
2022-09-14T09:34:56.796Z,18.85
2022-09-14T09:37:41.105Z,20.50
2022-09-14T09:40:20.209Z,19.15
2022-09-14T09:43:29.022Z,19.48
2022-09-14T09:46:12.413Z,17.63
2022-09-14T09:48:47.668Z,18.23
2022-09-14T09:51:28.132Z,17.85
2022-09-14T09:54:19.595Z,16.70
2022-09-14T09:56:58.654Z,15.60
2022-09-14T09:59:37.967Z,15.02
2022-09-14T10:02:31.639Z,14.73
2022-09-14T10:05:05.632Z,13.20
2022-09-14T10:07:39.541Z,12.45
2022-09-14T10:10:14.019Z,11.38
2022-09-14T10:12:52.224Z,10.32
2022-09-14T10:15:26.214Z,8.57
2022-09-14T10:18:11.195Z,9.93
2022-09-14T10:20:45.573Z,11.77
2022-09-14T10:23:39.183Z,12.00
2022-09-14T10:26:30.106Z,13.00
2022-09-14T10:29:31.728Z,13.20
2022-09-14T10:32:12.640Z,12.73
2022-09-14T10:34:48.077Z,15.00
2022-09-14T10:37:47.664Z,14.45
2022-09-14T10:40:23.558Z,16.48
2022-09-14T10:43:11.795Z,17.27
2022-09-14T10:45:46.844Z,19.20
2022-09-14T10:49:07.532Z,17.75
2022-09-14T10:51:59.136Z,18.77
2022-09-14T10:55:00.950Z,21.58
2022-09-14T10:57:45.264Z,23.48
2022-09-14T11:00:19.663Z,24.48
2022-09-14T11:03:27.573Z,27.30
2022-09-14T11:06:21.867Z,26.27
2022-09-14T11:09:03.426Z,25.25
2022-09-14T11:12:07.866Z,26.25
2022-09-14T11:14:58.252Z,23.63
2022-09-14T11:18:15.304Z,24.27
2022-09-14T11:20:59.630Z,20.20
2022-09-14T11:23:46.212Z,20.88
2022-09-14T11:26:31.477Z,14.63
2022-09-14T11:29:19.199Z,14.32
2022-09-14T11:32:19.245Z,13.77
2022-09-14T11:34:56.170Z,10.50
2022-09-14T11:37:44.216Z,10.60
2022-09-14T11:40:25.059Z,9.75
2022-09-14T11:43:11.425Z,8.77
2022-09-14T11:45:56.775Z,8.50
2022-09-14T11:48:42.662Z,7.90
2022-09-14T11:51:24.015Z,7.60
2022-09-14T11:53:54.258Z,7.53
2022-09-14T11:56:29.652Z,6.25
2022-09-14T11:59:06.822Z,5.97
2022-09-14T12:01:42.420Z,6.55
2022-09-14T12:04:18.667Z,6.55
2022-09-14T12:06:59.358Z,5.18
2022-09-14T12:09:50.215Z,4.80
2022-09-14T12:12:45.338Z,5.00
2022-09-14T12:15:35.609Z,4.43
2022-09-14T12:18:30.291Z,4.32
2022-09-14T12:21:08.185Z,4.15
2022-09-14T12:23:59.570Z,5.97
2022-09-14T12:26:36.473Z,4.18
2022-09-14T12:29:32.575Z,4.30
2022-09-14T12:32:28.345Z,4.25
2022-09-14T12:35:45.803Z,4.65
2022-09-14T12:39:06.666Z,4.65
2022-09-14T12:42:25.411Z,4.45
2022-09-14T12:44:59.013Z,4.72
2022-09-14T12:48:04.597Z,4.55
2022-09-14T12:50:39.437Z,6.13
2022-09-14T12:53:31.583Z,8.07
2022-09-14T12:56:09.636Z,7.60
2022-09-14T12:58:59.337Z,5.47
2022-09-14T13:01:49.514Z,5.88
2022-09-14T13:04:29.723Z,8.45
2022-09-14T13:07:03.629Z,9.82
2022-09-14T13:09:43.280Z,9.70
2022-09-14T13:12:17.151Z,10.10
2022-09-14T13:14:55.818Z,9.40
2022-09-14T13:17:25.946Z,10.43
2022-09-14T13:20:06.045Z,10.70
2022-09-14T13:22:36.938Z,11.48
2022-09-14T13:25:10.326Z,12.50
2022-09-14T13:27:42.724Z,12.23
2022-09-14T13:30:24.780Z,11.57
2022-09-14T13:32:58.746Z,12.65
2022-09-14T13:35:38.404Z,13.18
2022-09-14T13:38:22.312Z,13.07
2022-09-14T13:40:56.127Z,14.48
2022-09-14T13:43:27.008Z,15.38
2022-09-14T13:45:57.497Z,16.27
2022-09-14T13:48:28.009Z,17.90
2022-09-14T13:51:05.800Z,18.05
2022-09-14T13:53:48.746Z,19.30
2022-09-14T13:56:31.449Z,20.45
2022-09-14T13:59:23.446Z,23.63
2022-09-14T14:02:02.255Z,24.23
2022-09-14T14:04:39.458Z,26.23
2022-09-14T14:07:31.649Z,25.48
2022-09-14T14:10:04.359Z,26.80
2022-09-14T14:12:39.489Z,25.55
2022-09-14T14:15:44.716Z,25.27
2022-09-14T14:18:42.994Z,24.25
2022-09-14T14:21:27.523Z,27.10
2022-09-14T14:24:29.467Z,26.13
2022-09-14T14:27:03.167Z,26.15
2022-09-14T14:29:33.280Z,22.88
2022-09-14T14:32:05.867Z,21.33
2022-09-14T14:34:35.997Z,20.80
2022-09-14T14:37:06.213Z,25.55
2022-09-14T14:39:39.045Z,34.47
2022-09-14T14:42:10.575Z,43.25
2022-09-14T14:44:45.490Z,39.90
2022-09-14T14:47:17.945Z,40.17
2022-09-14T14:49:48.103Z,37.30
2022-09-14T14:52:18.269Z,28.13
2022-09-14T14:54:53.734Z,25.90
2022-09-14T14:57:27.052Z,22.80
2022-09-14T14:59:59.954Z,21.42
2022-09-14T15:02:30.053Z,21.10
2022-09-14T15:05:00.094Z,19.25
2022-09-14T15:07:30.268Z,19.95
2022-09-14T15:10:03.624Z,19.85
2022-09-14T15:12:37.856Z,19.85
2022-09-14T15:15:10.165Z,18.83
2022-09-14T15:17:40.384Z,18.13
2022-09-14T15:20:12.323Z,19.10
2022-09-14T15:22:43.266Z,19.75
2022-09-14T15:25:17.228Z,20.20
2022-09-14T15:27:47.624Z,20.05
2022-09-14T15:30:18.779Z,18.52
2022-09-14T15:32:48.890Z,16.05
2022-09-14T15:35:19.348Z,17.10
2022-09-14T15:37:50.962Z,16.13
2022-09-14T15:40:23.635Z,15.82
2022-09-14T15:43:01.255Z,16.35
2022-09-14T15:45:31.398Z,16.02
2022-09-14T15:48:01.550Z,15.38
2022-09-14T15:50:35.949Z,14.27
2022-09-14T15:53:08.882Z,15.20
2022-09-14T15:55:45.051Z,13.82
2022-09-14T15:58:15.871Z,13.70
2022-09-14T16:00:47.191Z,14.77
2022-09-14T16:03:20.112Z,14.80
2022-09-14T16:05:53.035Z,17.33
2022-09-14T16:08:23.152Z,16.75
2022-09-14T16:11:01.470Z,17.95
2022-09-14T16:13:32.395Z,18.10
2022-09-14T16:16:08.104Z,18.20
2022-09-14T16:18:38.892Z,16.73
2022-09-14T16:21:11.584Z,16.83
2022-09-14T16:23:45.058Z,16.85
2022-09-14T16:26:22.180Z,17.08
2022-09-14T16:28:54.341Z,17.25
2022-09-14T16:31:34.411Z,15.63
2022-09-14T16:34:18.077Z,15.35
2022-09-14T16:36:49.661Z,13.60
2022-09-14T16:39:25.246Z,13.93
2022-09-14T16:42:02.544Z,12.85
2022-09-14T16:44:35.498Z,11.35
2022-09-14T16:47:05.606Z,14.25
2022-09-14T16:49:37.663Z,14.10
2022-09-14T16:52:10.832Z,15.05
2022-09-14T16:54:40.903Z,14.73
2022-09-14T16:57:13.544Z,15.00
2022-09-14T16:59:43.684Z,14.15
2022-09-14T17:02:22.089Z,16.35
2022-09-14T17:04:52.975Z,15.40
2022-09-14T17:07:23.816Z,16.65
2022-09-14T17:09:53.893Z,18.17
2022-09-14T17:12:26.741Z,18.98
2022-09-14T17:14:56.855Z,20.10
2022-09-14T17:17:27.016Z,20.58
2022-09-14T17:20:04.802Z,20.27
2022-09-14T17:22:37.737Z,21.52
2022-09-14T17:25:10.030Z,22.33
2022-09-14T17:27:44.585Z,21.95
2022-09-14T17:30:16.872Z,21.27
2022-09-14T17:32:46.945Z,22.35
2022-09-14T17:35:17.356Z,23.60
2022-09-14T17:37:50.562Z,24.10
2022-09-14T17:40:20.836Z,26.13
2022-09-14T17:42:53.914Z,27.08
2022-09-14T17:45:26.468Z,26.70
2022-09-14T17:47:56.685Z,28.85
2022-09-14T17:50:27.004Z,29.27
2022-09-14T17:52:57.069Z,29.02
2022-09-14T17:55:30.437Z,27.98
2022-09-14T17:58:03.147Z,27.10
2022-09-14T18:00:36.033Z,29.27
2022-09-14T18:03:09.437Z,29.15
2022-09-14T18:05:42.700Z,32.15
2022-09-14T18:08:12.748Z,32.50
2022-09-14T18:10:42.976Z,34.00
2022-09-14T18:13:18.772Z,38.25
2022-09-14T18:15:48.868Z,38.00
2022-09-14T18:18:21.240Z,37.38
2022-09-14T18:20:53.935Z,37.05
2022-09-14T18:23:24.055Z,38.42
2022-09-14T18:25:54.243Z,38.70
2022-09-14T18:28:27.532Z,39.47
2022-09-14T18:31:03.540Z,39.90
2022-09-14T18:33:36.141Z,38.50
2022-09-14T18:36:11.160Z,40.13
2022-09-14T18:38:41.200Z,40.00
2022-09-14T18:41:14.812Z,39.15
2022-09-14T18:43:54.205Z,38.78
2022-09-14T18:46:27.842Z,39.05
2022-09-14T18:49:00.953Z,39.30
2022-09-14T18:51:33.947Z,36.97
2022-09-14T18:54:07.593Z,37.00
2022-09-14T18:56:38.946Z,37.40
2022-09-14T18:59:16.478Z,36.40
2022-09-14T19:01:46.881Z,37.28
2022-09-14T19:04:17.414Z,36.70
2022-09-14T19:06:47.522Z,36.60
2022-09-14T19:09:20.216Z,38.20
2022-09-14T19:11:53.537Z,39.38
2022-09-14T19:14:26.507Z,39.72
2022-09-14T19:17:00.427Z,39.50
2022-09-14T19:19:30.470Z,38.00
2022-09-14T19:22:00.619Z,37.40
2022-09-14T19:24:33.251Z,38.05
2022-09-14T19:27:03.433Z,36.88
2022-09-14T19:29:36.192Z,39.75
2022-09-14T19:32:06.492Z,40.53
2022-09-14T19:34:38.291Z,39.95
2022-09-14T19:37:14.019Z,40.63
2022-09-14T19:39:44.885Z,40.03
2022-09-14T19:42:17.366Z,32.72
2022-09-14T19:44:50.051Z,36.47
2022-09-14T19:47:20.190Z,35.47
2022-09-14T19:49:50.267Z,34.83
2022-09-14T19:52:20.419Z,36.17
2022-09-14T19:54:50.505Z,36.17
2022-09-14T19:57:20.619Z,36.40
2022-09-14T19:59:54.012Z,35.45
2022-09-14T20:02:24.409Z,35.53
2022-09-14T20:04:54.607Z,33.70
2022-09-14T20:07:27.078Z,32.08
2022-09-14T20:09:57.201Z,30.50
2022-09-14T20:12:30.430Z,31.88
2022-09-14T20:15:03.110Z,31.23
2022-09-14T20:17:33.189Z,30.05
2022-09-14T20:20:03.389Z,29.65
2022-09-14T20:22:33.431Z,29.95
2022-09-14T20:25:03.999Z,28.75
2022-09-14T20:27:34.135Z,28.45
2022-09-14T20:30:11.616Z,27.58
2022-09-14T20:32:47.466Z,26.10
2022-09-14T20:35:23.482Z,27.73
2022-09-14T20:37:53.522Z,28.67
2022-09-14T20:40:23.685Z,27.25
2022-09-14T20:42:53.839Z,28.38
2022-09-14T20:45:26.518Z,26.55
2022-09-14T20:47:56.641Z,28.17
2022-09-14T20:50:29.303Z,27.67
2022-09-14T20:52:59.388Z,27.75
2022-09-14T20:55:30.280Z,27.23
2022-09-14T20:58:02.662Z,26.42
2022-09-14T21:00:35.325Z,26.38
2022-09-14T21:03:08.474Z,27.85
2022-09-14T21:05:38.691Z,27.45
2022-09-14T21:08:09.055Z,27.10
2022-09-14T21:10:45.558Z,26.77
2022-09-14T21:13:15.966Z,25.85
2022-09-14T21:15:55.103Z,25.63
2022-09-14T21:18:28.191Z,23.73
2022-09-14T21:21:02.738Z,25.35
2022-09-14T21:23:33.064Z,24.65
2022-09-14T21:26:09.184Z,23.20
2022-09-14T21:28:41.254Z,24.27
2022-09-14T21:31:22.305Z,25.20
2022-09-14T21:33:54.859Z,25.75
2022-09-14T21:36:28.232Z,25.70
2022-09-14T21:39:09.515Z,25.70
2022-09-14T21:41:42.037Z,24.42
2022-09-14T21:44:12.229Z,24.35
2022-09-14T21:46:46.063Z,23.65
2022-09-14T21:49:21.392Z,24.17
2022-09-14T21:51:52.073Z,23.60
2022-09-14T21:54:25.326Z,25.40
2022-09-14T21:56:56.318Z,24.70
2022-09-14T21:59:26.582Z,24.05
2022-09-14T22:02:01.691Z,23.90
2022-09-14T22:04:32.203Z,22.58
2022-09-14T22:07:02.409Z,22.92
2022-09-14T22:09:37.338Z,24.35
2022-09-14T22:12:10.832Z,24.67
2022-09-14T22:14:40.918Z,24.40
2022-09-14T22:17:16.455Z,25.58
2022-09-14T22:19:46.487Z,25.27
2022-09-14T22:22:16.715Z,24.90
2022-09-14T22:24:46.777Z,26.55
2022-09-14T22:27:19.682Z,25.90
2022-09-14T22:29:49.855Z,27.60
2022-09-14T22:32:22.731Z,26.85
2022-09-14T22:34:53.184Z,25.70
2022-09-14T22:37:23.240Z,27.98
2022-09-14T22:39:53.838Z,29.30
2022-09-14T22:42:24.100Z,28.33
2022-09-14T22:44:54.174Z,26.20
2022-09-14T22:47:29.300Z,26.77
2022-09-14T22:49:59.320Z,26.35
2022-09-14T22:52:29.411Z,28.55
2022-09-14T22:54:59.456Z,28.67
2022-09-14T22:57:29.563Z,26.52
2022-09-14T22:59:59.676Z,27.00
2022-09-14T23:02:35.194Z,28.45
2022-09-14T23:05:05.366Z,27.10
2022-09-14T23:07:35.520Z,28.83
2022-09-14T23:10:05.764Z,28.73
2022-09-14T23:12:36.129Z,27.52
2022-09-14T23:15:06.802Z,28.90
2022-09-14T23:17:42.022Z,29.55
2022-09-14T23:20:12.511Z,28.88
2022-09-14T23:22:42.626Z,28.88
2022-09-14T23:25:13.471Z,29.25
2022-09-14T23:27:43.581Z,27.77
2022-09-14T23:30:15.825Z,28.17
2022-09-14T23:32:54.704Z,28.33
2022-09-14T23:35:24.767Z,28.88
2022-09-14T23:37:54.899Z,29.90
2022-09-14T23:40:25.734Z,29.58
2022-09-14T23:42:56.599Z,29.90
2022-09-14T23:45:26.646Z,29.58
2022-09-14T23:47:59.429Z,26.50
2022-09-14T23:50:32.356Z,27.83
2022-09-14T23:53:09.431Z,29.35
2022-09-14T23:55:45.777Z,29.02
2022-09-14T23:58:19.042Z,30.52
